sensor_id;sensor_type;location;lat;lon;timestamp;P1;durP1;ratioP1;P2;durP2;ratioP2
11245;SDS011;59870;50.106;8.580;2023-02-19T00:02:12;6.60;;;6.27;;
11245;SDS011;59870;50.106;8.580;2023-02-19T00:04:40;6.63;;;6.23;;
11245;SDS011;59870;50.106;8.580;2023-02-19T00:07:08;7.07;;;6.67;;
11245;SDS011;59870;50.106;8.580;2023-02-19T00:09:35;7.20;;;6.80;;
11245;SDS011;59870;50.106;8.580;2023-02-19T00:12:03;6.67;;;6.07;;
11245;SDS011;59870;50.106;8.580;2023-02-19T00:14:30;7.10;;;6.70;;
11245;SDS011;59870;50.106;8.580;2023-02-19T00:16:58;6.73;;;6.43;;
11245;SDS011;59870;50.106;8.580;2023-02-19T00:19:26;6.73;;;6.23;;
11245;SDS011;59870;50.106;8.580;2023-02-19T00:21:54;6.43;;;6.03;;
11245;SDS011;59870;50.106;8.580;2023-02-19T00:24:21;5.67;;;5.47;;
11245;SDS011;59870;50.106;8.580;2023-02-19T00:26:48;6.93;;;6.43;;
11245;SDS011;59870;50.106;8.580;2023-02-19T00:29:17;6.67;;;6.27;;
11245;SDS011;59870;50.106;8.580;2023-02-19T00:31:46;6.80;;;6.40;;
11245;SDS011;59870;50.106;8.580;2023-02-19T00:34:14;12.03;;;10.90;;
11245;SDS011;59870;50.106;8.580;2023-02-19T00:36:41;7.53;;;7.03;;
11245;SDS011;59870;50.106;8.580;2023-02-19T00:39:10;8.03;;;7.53;;
11245;SDS011;59870;50.106;8.580;2023-02-19T00:41:42;6.30;;;5.93;;
11245;SDS011;59870;50.106;8.580;2023-02-19T00:44:11;6.10;;;5.80;;
11245;SDS011;59870;50.106;8.580;2023-02-19T00:46:43;6.60;;;6.10;;
11245;SDS011;59870;50.106;8.580;2023-02-19T00:49:17;6.13;;;5.77;;
11245;SDS011;59870;50.106;8.580;2023-02-19T00:51:46;6.50;;;6.00;;
11245;SDS011;59870;50.106;8.580;2023-02-19T00:54:15;6.43;;;6.03;;
11245;SDS011;59870;50.106;8.580;2023-02-19T00:56:43;6.67;;;6.13;;
11245;SDS011;59870;50.106;8.580;2023-02-19T00:59:11;6.10;;;5.70;;
11245;SDS011;59870;50.106;8.580;2023-02-19T01:01:38;6.10;;;5.80;;
11245;SDS011;59870;50.106;8.580;2023-02-19T01:04:06;5.83;;;5.53;;
11245;SDS011;59870;50.106;8.580;2023-02-19T01:06:34;6.10;;;5.80;;
11245;SDS011;59870;50.106;8.580;2023-02-19T01:09:02;6.40;;;6.10;;
11245;SDS011;59870;50.106;8.580;2023-02-19T01:11:30;6.50;;;6.03;;
11245;SDS011;59870;50.106;8.580;2023-02-19T01:13:58;6.60;;;6.20;;
11245;SDS011;59870;50.106;8.580;2023-02-19T01:16:27;5.70;;;5.40;;
11245;SDS011;59870;50.106;8.580;2023-02-19T01:18:56;6.20;;;5.87;;
11245;SDS011;59870;50.106;8.580;2023-02-19T01:21:26;7.17;;;6.17;;
11245;SDS011;59870;50.106;8.580;2023-02-19T01:23:55;6.50;;;6.20;;
11245;SDS011;59870;50.106;8.580;2023-02-19T01:26:26;6.57;;;6.07;;
11245;SDS011;59870;50.106;8.580;2023-02-19T01:28:56;7.00;;;6.60;;
11245;SDS011;59870;50.106;8.580;2023-02-19T01:31:24;6.93;;;6.53;;
11245;SDS011;59870;50.106;8.580;2023-02-19T01:33:53;6.73;;;6.43;;
11245;SDS011;59870;50.106;8.580;2023-02-19T01:36:24;7.00;;;6.63;;
11245;SDS011;59870;50.106;8.580;2023-02-19T01:38:55;6.43;;;6.13;;
11245;SDS011;59870;50.106;8.580;2023-02-19T01:41:26;5.63;;;5.43;;
11245;SDS011;59870;50.106;8.580;2023-02-19T01:43:56;6.20;;;5.83;;
11245;SDS011;59870;50.106;8.580;2023-02-19T01:46:34;6.27;;;5.87;;
11245;SDS011;59870;50.106;8.580;2023-02-19T01:51:53;6.37;;;5.97;;
11245;SDS011;59870;50.106;8.580;2023-02-19T01:54:25;6.03;;;5.63;;
11245;SDS011;59870;50.106;8.580;2023-02-19T01:56:55;6.63;;;6.23;;
11245;SDS011;59870;50.106;8.580;2023-02-19T01:59:24;5.63;;;5.43;;
11245;SDS011;59870;50.106;8.580;2023-02-19T02:01:52;6.37;;;6.07;;
11245;SDS011;59870;50.106;8.580;2023-02-19T02:04:20;6.87;;;6.37;;
11245;SDS011;59870;50.106;8.580;2023-02-19T02:06:49;6.63;;;6.33;;
11245;SDS011;59870;50.106;8.580;2023-02-19T02:09:19;6.30;;;5.90;;
11245;SDS011;59870;50.106;8.580;2023-02-19T02:12:06;6.43;;;6.10;;
11245;SDS011;59870;50.106;8.580;2023-02-19T02:14:35;5.70;;;5.40;;
11245;SDS011;59870;50.106;8.580;2023-02-19T02:17:10;6.33;;;6.03;;
11245;SDS011;59870;50.106;8.580;2023-02-19T02:22:51;5.80;;;5.53;;
11245;SDS011;59870;50.106;8.580;2023-02-19T02:28:29;6.27;;;5.87;;
11245;SDS011;59870;50.106;8.580;2023-02-19T02:31:24;6.03;;;5.83;;
11245;SDS011;59870;50.106;8.580;2023-02-19T02:34:14;6.00;;;5.70;;
11245;SDS011;59870;50.106;8.580;2023-02-19T02:36:51;6.17;;;5.77;;
11245;SDS011;59870;50.106;8.580;2023-02-19T02:39:21;6.50;;;6.10;;
11245;SDS011;59870;50.106;8.580;2023-02-19T02:41:55;5.50;;;5.30;;
11245;SDS011;59870;50.106;8.580;2023-02-19T02:44:51;5.73;;;5.43;;
11245;SDS011;59870;50.106;8.580;2023-02-19T02:47:52;5.63;;;5.30;;
11245;SDS011;59870;50.106;8.580;2023-02-19T02:50:24;5.60;;;5.40;;
11245;SDS011;59870;50.106;8.580;2023-02-19T02:52:57;5.60;;;5.30;;
11245;SDS011;59870;50.106;8.580;2023-02-19T02:55:48;5.63;;;5.33;;
11245;SDS011;59870;50.106;8.580;2023-02-19T02:58:19;5.63;;;5.23;;
11245;SDS011;59870;50.106;8.580;2023-02-19T03:00:57;5.60;;;5.40;;
11245;SDS011;59870;50.106;8.580;2023-02-19T03:03:46;5.70;;;5.40;;
11245;SDS011;59870;50.106;8.580;2023-02-19T03:06:19;5.23;;;4.93;;
11245;SDS011;59870;50.106;8.580;2023-02-19T03:09:07;5.63;;;5.33;;
11245;SDS011;59870;50.106;8.580;2023-02-19T03:11:48;5.30;;;5.00;;
11245;SDS011;59870;50.106;8.580;2023-02-19T03:14:42;5.30;;;5.10;;
11245;SDS011;59870;50.106;8.580;2023-02-19T03:17:40;5.67;;;5.37;;
11245;SDS011;59870;50.106;8.580;2023-02-19T03:20:32;5.77;;;5.47;;
11245;SDS011;59870;50.106;8.580;2023-02-19T03:23:02;5.27;;;5.07;;
11245;SDS011;59870;50.106;8.580;2023-02-19T03:25:32;6.23;;;5.83;;
11245;SDS011;59870;50.106;8.580;2023-02-19T03:28:41;5.50;;;5.20;;
11245;SDS011;59870;50.106;8.580;2023-02-19T03:31:31;5.77;;;5.47;;
11245;SDS011;59870;50.106;8.580;2023-02-19T03:34:02;6.03;;;5.73;;
11245;SDS011;59870;50.106;8.580;2023-02-19T03:36:35;5.50;;;5.17;;
11245;SDS011;59870;50.106;8.580;2023-02-19T03:39:05;5.13;;;4.90;;
11245;SDS011;59870;50.106;8.580;2023-02-19T03:41:42;5.30;;;5.00;;
11245;SDS011;59870;50.106;8.580;2023-02-19T03:47:08;4.63;;;4.33;;
11245;SDS011;59870;50.106;8.580;2023-02-19T03:50:03;4.40;;;4.20;;
11245;SDS011;59870;50.106;8.580;2023-02-19T03:52:52;4.57;;;4.20;;
11245;SDS011;59870;50.106;8.580;2023-02-19T03:58:19;4.33;;;4.13;;
11245;SDS011;59870;50.106;8.580;2023-02-19T04:01:09;4.87;;;4.57;;
11245;SDS011;59870;50.106;8.580;2023-02-19T04:04:11;4.37;;;4.17;;
11245;SDS011;59870;50.106;8.580;2023-02-19T04:06:46;4.17;;;3.90;;
11245;SDS011;59870;50.106;8.580;2023-02-19T04:09:19;4.47;;;4.23;;
11245;SDS011;59870;50.106;8.580;2023-02-19T04:11:55;4.33;;;4.10;;
11245;SDS011;59870;50.106;8.580;2023-02-19T04:14:26;4.13;;;3.83;;
11245;SDS011;59870;50.106;8.580;2023-02-19T04:16:58;4.57;;;4.37;;
11245;SDS011;59870;50.106;8.580;2023-02-19T04:19:29;5.07;;;4.87;;
11245;SDS011;59870;50.106;8.580;2023-02-19T04:22:00;5.03;;;4.73;;
11245;SDS011;59870;50.106;8.580;2023-02-19T04:24:35;4.93;;;4.73;;
11245;SDS011;59870;50.106;8.580;2023-02-19T04:27:06;5.43;;;5.13;;
11245;SDS011;59870;50.106;8.580;2023-02-19T04:29:35;5.10;;;4.90;;
11245;SDS011;59870;50.106;8.580;2023-02-19T04:32:05;5.57;;;4.40;;
11245;SDS011;59870;50.106;8.580;2023-02-19T04:34:33;4.80;;;4.60;;
11245;SDS011;59870;50.106;8.580;2023-02-19T04:37:00;4.60;;;4.40;;
11245;SDS011;59870;50.106;8.580;2023-02-19T04:39:28;4.13;;;3.93;;
11245;SDS011;59870;50.106;8.580;2023-02-19T04:41:56;4.07;;;3.87;;
11245;SDS011;59870;50.106;8.580;2023-02-19T04:44:23;4.33;;;4.13;;
11245;SDS011;59870;50.106;8.580;2023-02-19T04:46:50;4.23;;;4.00;;
11245;SDS011;59870;50.106;8.580;2023-02-19T04:49:18;3.90;;;3.80;;
11245;SDS011;59870;50.106;8.580;2023-02-19T04:51:45;4.53;;;4.33;;
11245;SDS011;59870;50.106;8.580;2023-02-19T04:54:12;3.77;;;3.67;;
11245;SDS011;59870;50.106;8.580;2023-02-19T04:56:39;4.27;;;4.17;;
11245;SDS011;59870;50.106;8.580;2023-02-19T04:59:08;4.60;;;4.50;;
11245;SDS011;59870;50.106;8.580;2023-02-19T05:01:37;3.90;;;3.80;;
11245;SDS011;59870;50.106;8.580;2023-02-19T05:04:05;3.73;;;3.63;;
11245;SDS011;59870;50.106;8.580;2023-02-19T05:06:33;4.10;;;3.90;;
11245;SDS011;59870;50.106;8.580;2023-02-19T05:09:00;3.77;;;3.67;;
11245;SDS011;59870;50.106;8.580;2023-02-19T05:11:28;4.33;;;4.03;;
11245;SDS011;59870;50.106;8.580;2023-02-19T05:13:55;3.97;;;3.67;;
11245;SDS011;59870;50.106;8.580;2023-02-19T05:16:23;3.63;;;3.53;;
11245;SDS011;59870;50.106;8.580;2023-02-19T05:18:50;4.13;;;3.93;;
11245;SDS011;59870;50.106;8.580;2023-02-19T05:21:18;3.83;;;3.70;;
11245;SDS011;59870;50.106;8.580;2023-02-19T05:23:45;3.90;;;3.80;;
11245;SDS011;59870;50.106;8.580;2023-02-19T05:26:14;3.73;;;3.63;;
11245;SDS011;59870;50.106;8.580;2023-02-19T05:28:44;3.80;;;3.70;;
11245;SDS011;59870;50.106;8.580;2023-02-19T05:31:13;3.70;;;3.60;;
11245;SDS011;59870;50.106;8.580;2023-02-19T05:33:41;3.90;;;3.80;;
11245;SDS011;59870;50.106;8.580;2023-02-19T05:36:11;3.80;;;3.60;;
11245;SDS011;59870;50.106;8.580;2023-02-19T05:38:39;4.57;;;4.37;;
11245;SDS011;59870;50.106;8.580;2023-02-19T05:41:08;4.13;;;3.93;;
11245;SDS011;59870;50.106;8.580;2023-02-19T05:43:56;3.90;;;3.80;;
11245;SDS011;59870;50.106;8.580;2023-02-19T05:46:26;4.13;;;3.93;;
11245;SDS011;59870;50.106;8.580;2023-02-19T05:48:58;3.90;;;3.80;;
11245;SDS011;59870;50.106;8.580;2023-02-19T05:51:25;3.90;;;3.70;;
11245;SDS011;59870;50.106;8.580;2023-02-19T05:53:53;4.00;;;3.90;;
11245;SDS011;59870;50.106;8.580;2023-02-19T05:56:25;4.20;;;3.90;;
11245;SDS011;59870;50.106;8.580;2023-02-19T05:59:21;4.23;;;3.93;;
11245;SDS011;59870;50.106;8.580;2023-02-19T06:01:51;4.03;;;3.93;;
11245;SDS011;59870;50.106;8.580;2023-02-19T06:04:20;4.67;;;4.30;;
11245;SDS011;59870;50.106;8.580;2023-02-19T06:06:47;3.30;;;3.20;;
11245;SDS011;59870;50.106;8.580;2023-02-19T06:09:15;4.80;;;4.43;;
11245;SDS011;59870;50.106;8.580;2023-02-19T06:11:44;4.90;;;4.70;;
11245;SDS011;59870;50.106;8.580;2023-02-19T06:14:12;4.60;;;4.40;;
11245;SDS011;59870;50.106;8.580;2023-02-19T06:16:40;4.67;;;4.47;;
11245;SDS011;59870;50.106;8.580;2023-02-19T06:19:07;5.10;;;4.90;;
11245;SDS011;59870;50.106;8.580;2023-02-19T06:21:35;4.63;;;4.33;;
11245;SDS011;59870;50.106;8.580;2023-02-19T06:24:04;4.30;;;4.20;;
11245;SDS011;59870;50.106;8.580;2023-02-19T06:26:33;4.90;;;4.70;;
11245;SDS011;59870;50.106;8.580;2023-02-19T06:29:00;4.87;;;4.67;;
11245;SDS011;59870;50.106;8.580;2023-02-19T06:31:28;4.23;;;4.13;;
11245;SDS011;59870;50.106;8.580;2023-02-19T06:36:59;5.60;;;5.30;;
11245;SDS011;59870;50.106;8.580;2023-02-19T06:52:17;5.03;;;4.57;;
11245;SDS011;59870;50.106;8.580;2023-02-19T06:57:42;4.67;;;4.37;;
11245;SDS011;59870;50.106;8.580;2023-02-19T07:00:09;5.00;;;4.70;;
11245;SDS011;59870;50.106;8.580;2023-02-19T07:02:40;5.80;;;5.50;;
11245;SDS011;59870;50.106;8.580;2023-02-19T07:05:08;4.70;;;4.50;;
11245;SDS011;59870;50.106;8.580;2023-02-19T07:07:36;4.87;;;4.50;;
11245;SDS011;59870;50.106;8.580;2023-02-19T07:10:03;4.70;;;4.50;;
11245;SDS011;59870;50.106;8.580;2023-02-19T07:12:31;5.10;;;4.80;;
11245;SDS011;59870;50.106;8.580;2023-02-19T07:14:58;5.33;;;5.13;;
11245;SDS011;59870;50.106;8.580;2023-02-19T07:17:26;4.53;;;4.33;;
11245;SDS011;59870;50.106;8.580;2023-02-19T07:19:54;4.73;;;4.40;;
11245;SDS011;59870;50.106;8.580;2023-02-19T07:22:22;4.60;;;4.40;;
11245;SDS011;59870;50.106;8.580;2023-02-19T07:24:49;5.00;;;4.80;;
11245;SDS011;59870;50.106;8.580;2023-02-19T07:27:17;4.70;;;4.50;;
11245;SDS011;59870;50.106;8.580;2023-02-19T07:29:46;4.60;;;4.40;;
11245;SDS011;59870;50.106;8.580;2023-02-19T07:32:13;4.87;;;4.67;;
11245;SDS011;59870;50.106;8.580;2023-02-19T07:34:40;4.50;;;4.30;;
11245;SDS011;59870;50.106;8.580;2023-02-19T07:37:08;4.67;;;4.47;;
11245;SDS011;59870;50.106;8.580;2023-02-19T07:39:35;4.50;;;4.30;;
11245;SDS011;59870;50.106;8.580;2023-02-19T07:42:06;4.80;;;4.60;;
11245;SDS011;59870;50.106;8.580;2023-02-19T07:44:46;5.03;;;4.73;;
11245;SDS011;59870;50.106;8.580;2023-02-19T07:47:40;5.43;;;5.07;;
11245;SDS011;59870;50.106;8.580;2023-02-19T07:50:08;5.20;;;5.00;;
11245;SDS011;59870;50.106;8.580;2023-02-19T07:52:40;4.83;;;4.63;;
11245;SDS011;59870;50.106;8.580;2023-02-19T07:55:07;4.70;;;4.50;;
11245;SDS011;59870;50.106;8.580;2023-02-19T07:57:35;4.57;;;4.27;;
11245;SDS011;59870;50.106;8.580;2023-02-19T08:00:03;4.60;;;4.40;;
11245;SDS011;59870;50.106;8.580;2023-02-19T08:02:38;4.93;;;4.70;;
11245;SDS011;59870;50.106;8.580;2023-02-19T08:05:51;4.50;;;4.20;;
11245;SDS011;59870;50.106;8.580;2023-02-19T08:08:23;4.70;;;4.10;;
11245;SDS011;59870;50.106;8.580;2023-02-19T08:14:14;4.70;;;4.30;;
11245;SDS011;59870;50.106;8.580;2023-02-19T08:16:49;5.00;;;4.80;;
11245;SDS011;59870;50.106;8.580;2023-02-19T08:19:17;4.70;;;4.40;;
11245;SDS011;59870;50.106;8.580;2023-02-19T08:21:50;5.20;;;4.83;;
11245;SDS011;59870;50.106;8.580;2023-02-19T08:30:26;5.30;;;5.00;;
11245;SDS011;59870;50.106;8.580;2023-02-19T08:33:06;5.40;;;5.00;;
11245;SDS011;59870;50.106;8.580;2023-02-19T08:35:37;5.70;;;5.30;;
11245;SDS011;59870;50.106;8.580;2023-02-19T08:38:06;5.93;;;5.50;;
11245;SDS011;59870;50.106;8.580;2023-02-19T08:40:33;4.73;;;4.40;;
11245;SDS011;59870;50.106;8.580;2023-02-19T08:43:06;4.77;;;4.43;;
11245;SDS011;59870;50.106;8.580;2023-02-19T08:45:38;5.73;;;4.77;;
11245;SDS011;59870;50.106;8.580;2023-02-19T08:51:09;5.10;;;4.70;;
11245;SDS011;59870;50.106;8.580;2023-02-19T08:53:38;5.10;;;4.80;;
11245;SDS011;59870;50.106;8.580;2023-02-19T08:56:07;4.90;;;4.50;;
11245;SDS011;59870;50.106;8.580;2023-02-19T08:58:37;5.00;;;4.60;;
11245;SDS011;59870;50.106;8.580;2023-02-19T09:01:27;5.40;;;5.03;;
11245;SDS011;59870;50.106;8.580;2023-02-19T09:03:55;5.57;;;5.17;;
11245;SDS011;59870;50.106;8.580;2023-02-19T09:06:31;5.77;;;5.30;;
11245;SDS011;59870;50.106;8.580;2023-02-19T09:08:58;7.57;;;4.60;;
11245;SDS011;59870;50.106;8.580;2023-02-19T09:11:26;4.60;;;4.20;;
11245;SDS011;59870;50.106;8.580;2023-02-19T09:13:54;5.60;;;5.13;;
11245;SDS011;59870;50.106;8.580;2023-02-19T09:16:23;5.70;;;5.20;;
11245;SDS011;59870;50.106;8.580;2023-02-19T09:18:50;5.50;;;5.10;;
11245;SDS011;59870;50.106;8.580;2023-02-19T09:21:17;4.67;;;4.37;;
11245;SDS011;59870;50.106;8.580;2023-02-19T09:23:45;5.40;;;4.97;;
11245;SDS011;59870;50.106;8.580;2023-02-19T09:26:12;4.87;;;4.53;;
11245;SDS011;59870;50.106;8.580;2023-02-19T09:28:41;6.57;;;4.83;;
11245;SDS011;59870;50.106;8.580;2023-02-19T09:31:10;5.60;;;5.10;;
11245;SDS011;59870;50.106;8.580;2023-02-19T09:33:43;5.97;;;4.83;;
11245;SDS011;59870;50.106;8.580;2023-02-19T09:36:12;5.33;;;4.83;;
11245;SDS011;59870;50.106;8.580;2023-02-19T09:38:41;4.87;;;4.57;;
11245;SDS011;59870;50.106;8.580;2023-02-19T09:41:17;4.70;;;4.30;;
11245;SDS011;59870;50.106;8.580;2023-02-19T09:43:56;4.87;;;4.47;;
11245;SDS011;59870;50.106;8.580;2023-02-19T09:52:02;4.90;;;4.60;;
11245;SDS011;59870;50.106;8.580;2023-02-19T09:54:35;4.50;;;4.10;;
11245;SDS011;59870;50.106;8.580;2023-02-19T09:57:05;4.50;;;4.13;;
11245;SDS011;59870;50.106;8.580;2023-02-19T09:59:47;4.80;;;4.40;;
11245;SDS011;59870;50.106;8.580;2023-02-19T10:02:19;6.00;;;4.53;;
11245;SDS011;59870;50.106;8.580;2023-02-19T10:04:49;4.97;;;4.63;;
11245;SDS011;59870;50.106;8.580;2023-02-19T10:07:19;5.27;;;4.10;;
11245;SDS011;59870;50.106;8.580;2023-02-19T10:09:59;5.50;;;4.83;;
11245;SDS011;59870;50.106;8.580;2023-02-19T10:12:53;5.10;;;4.73;;
11245;SDS011;59870;50.106;8.580;2023-02-19T10:15:30;4.37;;;4.07;;
11245;SDS011;59870;50.106;8.580;2023-02-19T10:18:02;4.43;;;3.77;;
11245;SDS011;59870;50.106;8.580;2023-02-19T10:20:30;5.00;;;4.50;;
11245;SDS011;59870;50.106;8.580;2023-02-19T10:23:05;4.80;;;4.40;;
11245;SDS011;59870;50.106;8.580;2023-02-19T10:25:40;5.13;;;4.73;;
11245;SDS011;59870;50.106;8.580;2023-02-19T10:28:13;5.63;;;5.13;;
11245;SDS011;59870;50.106;8.580;2023-02-19T10:30:47;4.93;;;4.53;;
11245;SDS011;59870;50.106;8.580;2023-02-19T10:33:20;5.07;;;4.67;;
11245;SDS011;59870;50.106;8.580;2023-02-19T10:36:04;5.30;;;5.00;;
11245;SDS011;59870;50.106;8.580;2023-02-19T10:38:34;4.90;;;4.60;;
11245;SDS011;59870;50.106;8.580;2023-02-19T10:41:06;5.50;;;5.10;;
11245;SDS011;59870;50.106;8.580;2023-02-19T10:43:41;6.30;;;5.70;;
11245;SDS011;59870;50.106;8.580;2023-02-19T10:46:18;5.60;;;5.20;;
11245;SDS011;59870;50.106;8.580;2023-02-19T10:49:00;5.73;;;5.33;;
11245;SDS011;59870;50.106;8.580;2023-02-19T10:51:38;5.03;;;4.60;;
11245;SDS011;59870;50.106;8.580;2023-02-19T10:54:18;5.10;;;4.80;;
11245;SDS011;59870;50.106;8.580;2023-02-19T10:59:57;4.83;;;4.33;;
11245;SDS011;59870;50.106;8.580;2023-02-19T11:02:44;5.03;;;4.60;;
11245;SDS011;59870;50.106;8.580;2023-02-19T11:05:17;4.97;;;4.60;;
11245;SDS011;59870;50.106;8.580;2023-02-19T11:07:49;5.03;;;4.63;;
11245;SDS011;59870;50.106;8.580;2023-02-19T11:12:53;4.77;;;4.53;;
11245;SDS011;59870;50.106;8.580;2023-02-19T11:15:32;4.73;;;4.53;;
11245;SDS011;59870;50.106;8.580;2023-02-19T11:18:16;4.87;;;4.37;;
11245;SDS011;59870;50.106;8.580;2023-02-19T11:23:29;5.10;;;4.80;;
11245;SDS011;59870;50.106;8.580;2023-02-19T11:26:02;4.27;;;3.97;;
11245;SDS011;59870;50.106;8.580;2023-02-19T11:33:49;5.90;;;5.40;;
11245;SDS011;59870;50.106;8.580;2023-02-19T11:38:48;6.73;;;6.13;;
11245;SDS011;59870;50.106;8.580;2023-02-19T12:12:13;4.93;;;4.63;;
11245;SDS011;59870;50.106;8.580;2023-02-19T12:20:29;5.03;;;4.63;;
11245;SDS011;59870;50.106;8.580;2023-02-19T12:26:15;6.20;;;4.73;;
11245;SDS011;59870;50.106;8.580;2023-02-19T12:31:45;4.90;;;4.60;;
11245;SDS011;59870;50.106;8.580;2023-02-19T12:37:36;5.20;;;4.70;;
11245;SDS011;59870;50.106;8.580;2023-02-19T12:43:18;5.33;;;4.90;;
11245;SDS011;59870;50.106;8.580;2023-02-19T12:45:55;5.47;;;4.97;;
11245;SDS011;59870;50.106;8.580;2023-02-19T12:51:26;5.17;;;4.77;;
11245;SDS011;59870;50.106;8.580;2023-02-19T12:56:39;5.87;;;5.37;;
11245;SDS011;59870;50.106;8.580;2023-02-19T12:59:14;5.93;;;5.63;;
11245;SDS011;59870;50.106;8.580;2023-02-19T13:04:41;4.97;;;4.57;;
11245;SDS011;59870;50.106;8.580;2023-02-19T13:07:16;5.03;;;4.63;;
11245;SDS011;59870;50.106;8.580;2023-02-19T13:09:57;6.53;;;6.03;;
11245;SDS011;59870;50.106;8.580;2023-02-19T13:12:34;6.20;;;5.63;;
11245;SDS011;59870;50.106;8.580;2023-02-19T13:15:29;6.37;;;5.77;;
11245;SDS011;59870;50.106;8.580;2023-02-19T13:18:04;5.57;;;5.27;;
11245;SDS011;59870;50.106;8.580;2023-02-19T13:20:41;5.00;;;4.70;;
11245;SDS011;59870;50.106;8.580;2023-02-19T13:23:29;6.20;;;4.60;;
11245;SDS011;59870;50.106;8.580;2023-02-19T13:37:18;5.57;;;5.07;;
11245;SDS011;59870;50.106;8.580;2023-02-19T13:39:50;5.43;;;5.13;;
11245;SDS011;59870;50.106;8.580;2023-02-19T13:42:32;5.27;;;4.77;;
11245;SDS011;59870;50.106;8.580;2023-02-19T13:45:02;6.00;;;5.37;;
11245;SDS011;59870;50.106;8.580;2023-02-19T13:50:22;6.10;;;5.13;;
11245;SDS011;59870;50.106;8.580;2023-02-19T13:52:51;6.23;;;5.73;;
11245;SDS011;59870;50.106;8.580;2023-02-19T14:01:07;5.90;;;5.40;;
11245;SDS011;59870;50.106;8.580;2023-02-19T14:30:27;5.33;;;5.03;;
11245;SDS011;59870;50.106;8.580;2023-02-19T14:32:55;5.40;;;5.00;;
11245;SDS011;59870;50.106;8.580;2023-02-19T14:35:40;5.00;;;4.60;;
11245;SDS011;59870;50.106;8.580;2023-02-19T14:40:59;5.07;;;4.73;;
11245;SDS011;59870;50.106;8.580;2023-02-19T14:43:27;4.93;;;4.70;;
11245;SDS011;59870;50.106;8.580;2023-02-19T14:45:57;4.93;;;4.73;;
11245;SDS011;59870;50.106;8.580;2023-02-19T14:48:30;4.77;;;4.47;;
11245;SDS011;59870;50.106;8.580;2023-02-19T14:51:09;5.07;;;4.87;;
11245;SDS011;59870;50.106;8.580;2023-02-19T14:53:49;5.03;;;4.83;;
11245;SDS011;59870;50.106;8.580;2023-02-19T14:56:18;5.30;;;5.00;;
11245;SDS011;59870;50.106;8.580;2023-02-19T14:59:06;5.00;;;4.80;;
11245;SDS011;59870;50.106;8.580;2023-02-19T15:01:35;5.53;;;5.27;;
11245;SDS011;59870;50.106;8.580;2023-02-19T15:04:04;4.73;;;4.43;;
11245;SDS011;59870;50.106;8.580;2023-02-19T15:06:33;4.87;;;4.67;;
11245;SDS011;59870;50.106;8.580;2023-02-19T15:09:02;5.43;;;5.13;;
11245;SDS011;59870;50.106;8.580;2023-02-19T15:11:32;5.67;;;5.27;;
11245;SDS011;59870;50.106;8.580;2023-02-19T15:14:01;5.43;;;5.13;;
11245;SDS011;59870;50.106;8.580;2023-02-19T15:16:31;4.90;;;4.60;;
11245;SDS011;59870;50.106;8.580;2023-02-19T15:19:04;5.53;;;5.23;;
11245;SDS011;59870;50.106;8.580;2023-02-19T15:21:35;5.40;;;5.20;;
11245;SDS011;59870;50.106;8.580;2023-02-19T15:24:05;5.63;;;5.23;;
11245;SDS011;59870;50.106;8.580;2023-02-19T15:26:37;5.33;;;5.03;;
11245;SDS011;59870;50.106;8.580;2023-02-19T15:29:10;5.47;;;5.17;;
11245;SDS011;59870;50.106;8.580;2023-02-19T15:31:43;5.50;;;5.20;;
11245;SDS011;59870;50.106;8.580;2023-02-19T15:34:14;5.27;;;4.97;;
11245;SDS011;59870;50.106;8.580;2023-02-19T15:36:43;5.97;;;5.67;;
11245;SDS011;59870;50.106;8.580;2023-02-19T15:39:15;5.47;;;5.17;;
11245;SDS011;59870;50.106;8.580;2023-02-19T15:41:49;5.67;;;5.37;;
11245;SDS011;59870;50.106;8.580;2023-02-19T15:44:27;5.77;;;5.30;;
11245;SDS011;59870;50.106;8.580;2023-02-19T15:46:57;5.57;;;5.37;;
11245;SDS011;59870;50.106;8.580;2023-02-19T15:49:32;5.97;;;5.67;;
11245;SDS011;59870;50.106;8.580;2023-02-19T15:52:51;6.53;;;6.13;;
11245;SDS011;59870;50.106;8.580;2023-02-19T15:58:05;6.90;;;6.50;;
11245;SDS011;59870;50.106;8.580;2023-02-19T16:00:47;6.07;;;5.77;;
11245;SDS011;59870;50.106;8.580;2023-02-19T16:03:20;5.17;;;4.97;;
11245;SDS011;59870;50.106;8.580;2023-02-19T16:06:24;4.60;;;4.40;;
11245;SDS011;59870;50.106;8.580;2023-02-19T16:08:44;4.87;;;4.67;;
11245;SDS011;59870;50.106;8.580;2023-02-19T16:11:35;4.67;;;4.47;;
11245;SDS011;59870;50.106;8.580;2023-02-19T16:14:39;5.23;;;5.03;;
11245;SDS011;59870;50.106;8.580;2023-02-19T16:17:04;6.20;;;5.80;;
11245;SDS011;59870;50.106;8.580;2023-02-19T16:22:12;5.87;;;5.37;;
11245;SDS011;59870;50.106;8.580;2023-02-19T16:24:44;5.47;;;5.27;;
11245;SDS011;59870;50.106;8.580;2023-02-19T16:27:26;5.23;;;5.00;;
11245;SDS011;59870;50.106;8.580;2023-02-19T16:30:19;5.33;;;5.13;;
11245;SDS011;59870;50.106;8.580;2023-02-19T16:38:59;5.77;;;5.50;;
11245;SDS011;59870;50.106;8.580;2023-02-19T16:46:53;6.17;;;5.77;;
11245;SDS011;59870;50.106;8.580;2023-02-19T16:49:23;6.33;;;6.03;;
11245;SDS011;59870;50.106;8.580;2023-02-19T16:51:50;5.50;;;5.20;;
11245;SDS011;59870;50.106;8.580;2023-02-19T16:54:19;5.47;;;5.20;;
11245;SDS011;59870;50.106;8.580;2023-02-19T16:56:47;4.97;;;4.77;;
11245;SDS011;59870;50.106;8.580;2023-02-19T16:59:14;5.50;;;5.20;;
11245;SDS011;59870;50.106;8.580;2023-02-19T17:01:41;4.97;;;4.77;;
11245;SDS011;59870;50.106;8.580;2023-02-19T17:04:09;5.37;;;5.07;;
11245;SDS011;59870;50.106;8.580;2023-02-19T17:06:38;5.47;;;5.13;;
11245;SDS011;59870;50.106;8.580;2023-02-19T17:09:07;5.40;;;5.10;;
11245;SDS011;59870;50.106;8.580;2023-02-19T17:11:35;5.37;;;5.07;;
11245;SDS011;59870;50.106;8.580;2023-02-19T17:14:02;5.20;;;5.00;;
11245;SDS011;59870;50.106;8.580;2023-02-19T17:16:30;4.97;;;4.70;;
11245;SDS011;59870;50.106;8.580;2023-02-19T17:19:11;5.70;;;5.40;;
11245;SDS011;59870;50.106;8.580;2023-02-19T17:21:41;5.77;;;5.37;;
11245;SDS011;59870;50.106;8.580;2023-02-19T17:24:10;5.33;;;4.90;;
11245;SDS011;59870;50.106;8.580;2023-02-19T17:26:38;5.73;;;5.43;;
11245;SDS011;59870;50.106;8.580;2023-02-19T17:29:06;5.77;;;5.47;;
11245;SDS011;59870;50.106;8.580;2023-02-19T17:31:39;5.30;;;5.00;;
11245;SDS011;59870;50.106;8.580;2023-02-19T17:34:07;5.60;;;5.30;;
11245;SDS011;59870;50.106;8.580;2023-02-19T17:36:34;5.33;;;5.03;;
11245;SDS011;59870;50.106;8.580;2023-02-19T17:39:04;6.30;;;6.00;;
11245;SDS011;59870;50.106;8.580;2023-02-19T17:41:37;5.50;;;5.30;;
11245;SDS011;59870;50.106;8.580;2023-02-19T17:44:04;5.17;;;4.93;;
11245;SDS011;59870;50.106;8.580;2023-02-19T17:46:32;4.27;;;4.07;;
11245;SDS011;59870;50.106;8.580;2023-02-19T17:49:00;4.60;;;4.40;;
11245;SDS011;59870;50.106;8.580;2023-02-19T17:51:27;5.17;;;4.87;;
11245;SDS011;59870;50.106;8.580;2023-02-19T17:53:55;5.17;;;4.97;;
11245;SDS011;59870;50.106;8.580;2023-02-19T17:56:23;5.73;;;5.23;;
11245;SDS011;59870;50.106;8.580;2023-02-19T17:58:52;5.77;;;5.37;;
11245;SDS011;59870;50.106;8.580;2023-02-19T18:01:20;5.63;;;5.23;;
11245;SDS011;59870;50.106;8.580;2023-02-19T18:03:48;5.90;;;5.60;;
11245;SDS011;59870;50.106;8.580;2023-02-19T18:06:16;6.17;;;5.87;;
11245;SDS011;59870;50.106;8.580;2023-02-19T18:08:48;5.30;;;5.00;;
11245;SDS011;59870;50.106;8.580;2023-02-19T18:11:17;5.40;;;5.00;;
11245;SDS011;59870;50.106;8.580;2023-02-19T18:13:45;4.50;;;4.30;;
11245;SDS011;59870;50.106;8.580;2023-02-19T18:16:13;4.80;;;4.40;;
11245;SDS011;59870;50.106;8.580;2023-02-19T18:18:42;5.73;;;5.33;;
11245;SDS011;59870;50.106;8.580;2023-02-19T18:21:11;5.33;;;5.10;;
11245;SDS011;59870;50.106;8.580;2023-02-19T18:23:40;6.07;;;5.67;;
11245;SDS011;59870;50.106;8.580;2023-02-19T18:26:09;6.30;;;5.90;;
11245;SDS011;59870;50.106;8.580;2023-02-19T18:28:39;5.13;;;4.93;;
11245;SDS011;59870;50.106;8.580;2023-02-19T18:31:06;4.97;;;4.67;;
11245;SDS011;59870;50.106;8.580;2023-02-19T18:33:34;5.40;;;5.10;;